TAM7881 SBGL-SBVT
Flight info
| Callsign | TAM7881 |
|---|---|
| Flight time | 0h 45m |
| Altitude | 31000 |
| Route | TISVA UL206 TODET |
| Aircraft | A320/M-SDE3FGHIRWY/LB1 |
Departure
| Time | 2026-04-21 03:21 |
|---|---|
| Airport | Rio Galeão – Tom Jobim International Airport (SBGL) |
Arrival
| Time | 2026-04-21 04:07 |
|---|---|
| Airport | Eurico de Aguiar Salles International Airport (SBVT) |
| Time | Latitude | Longitude | Altitude | Speed | Heading |
|---|---|---|---|---|---|
| 2026-04-21 02:59 | -22.81267 | -43.25084 | 22 ft | 0 kts | 358° |
| 2026-04-21 03:09 | -22.81269 | -43.25084 | 22 ft | 0 kts | 358° |
| 2026-04-21 03:09 | -22.81270 | -43.25084 | 22 ft | 0 kts | 358° |
| 2026-04-21 03:09 | -22.81273 | -43.25084 | 22 ft | 1 kts | 358° |
| 2026-04-21 03:09 | -22.81277 | -43.25084 | 22 ft | 1 kts | 352° |
| 2026-04-21 03:10 | -22.81281 | -43.25084 | 22 ft | 1 kts | 342° |
| 2026-04-21 03:10 | -22.81284 | -43.25083 | 22 ft | 1 kts | 333° |
| 2026-04-21 03:10 | -22.81288 | -43.25082 | 22 ft | 1 kts | 323° |
| 2026-04-21 03:10 | -22.81291 | -43.25080 | 23 ft | 1 kts | 314° |
| 2026-04-21 03:11 | -22.81294 | -43.25077 | 23 ft | 1 kts | 304° |
| 2026-04-21 03:11 | -22.81296 | -43.25074 | 22 ft | 1 kts | 295° |
| 2026-04-21 03:11 | -22.81298 | -43.25070 | 22 ft | 1 kts | 283° |
| 2026-04-21 03:11 | -22.81300 | -43.25066 | 22 ft | 1 kts | 269° |
| 2026-04-21 03:12 | -22.81300 | -43.25065 | 22 ft | 0 kts | 264° |
| 2026-04-21 03:13 | -22.81303 | -43.25075 | 23 ft | 2 kts | 248° |
| 2026-04-21 03:14 | -22.81315 | -43.25099 | 22 ft | 5 kts | 240° |
| 2026-04-21 03:14 | -22.81326 | -43.25130 | 22 ft | 4 kts | 256° |
| 2026-04-21 03:14 | -22.81328 | -43.25159 | 22 ft | 6 kts | 271° |
| 2026-04-21 03:14 | -22.81315 | -43.25207 | 24 ft | 6 kts | 301° |
| 2026-04-21 03:15 | -22.81293 | -43.25242 | 22 ft | 5 kts | 305° |
| 2026-04-21 03:15 | -22.81273 | -43.25270 | 22 ft | 4 kts | 308° |
| 2026-04-21 03:15 | -22.81234 | -43.25314 | 22 ft | 10 kts | 319° |
| 2026-04-21 03:15 | -22.81184 | -43.25352 | 22 ft | 8 kts | 328° |
| 2026-04-21 03:16 | -22.81138 | -43.25373 | 22 ft | 7 kts | 343° |
| 2026-04-21 03:16 | -22.81093 | -43.25383 | 22 ft | 6 kts | 351° |
| 2026-04-21 03:16 | -22.81052 | -43.25386 | 24 ft | 8 kts | 359° |
| 2026-04-21 03:16 | -22.80994 | -43.25381 | 22 ft | 8 kts | 0° |
| 2026-04-21 03:17 | -22.80944 | -43.25432 | 24 ft | 9 kts | 298° |
| 2026-04-21 03:17 | -22.80930 | -43.25466 | 27 ft | 3 kts | 292° |
| 2026-04-21 03:17 | -22.80903 | -43.25531 | 28 ft | 12 kts | 296° |
| 2026-04-21 03:17 | -22.80838 | -43.25580 | 22 ft | 14 kts | 359° |
| 2026-04-21 03:18 | -22.80754 | -43.25531 | 22 ft | 13 kts | 34° |
| 2026-04-21 03:18 | -22.80682 | -43.25474 | 22 ft | 12 kts | 34° |
| 2026-04-21 03:18 | -22.80623 | -43.25430 | 27 ft | 3 kts | 37° |
| 2026-04-21 03:19 | -22.80547 | -43.25371 | 30 ft | 17 kts | 18° |
| 2026-04-21 03:19 | -22.80443 | -43.25421 | 29 ft | 17 kts | 333° |
| 2026-04-21 03:19 | -22.80352 | -43.25480 | 28 ft | 11 kts | 326° |
| 2026-04-21 03:19 | -22.80348 | -43.25483 | 28 ft | 1 kts | 326° |
| 2026-04-21 03:20 | -22.80321 | -43.25499 | 27 ft | 11 kts | 334° |
| 2026-04-21 03:20 | -22.80212 | -43.25487 | 25 ft | 19 kts | 27° |
| 2026-04-21 03:20 | -22.80159 | -43.25405 | 27 ft | 0 kts | 73° |
| 2026-04-21 03:20 | -22.80141 | -43.25340 | 26 ft | 41 kts | 73° |
| 2026-04-21 03:21 | -22.79996 | -43.24774 | 29 ft | 111 kts | 74° |
| 2026-04-21 03:21 | -22.79735 | -43.23773 | 38 ft | 162 kts | 73° |
| 2026-04-21 03:21 | -22.79436 | -43.22564 | 621 ft | 168 kts | 76° |
| 2026-04-21 03:21 | -22.79176 | -43.21323 | 1311 ft | 171 kts | 77° |
| 2026-04-21 03:22 | -22.78907 | -43.19998 | 1701 ft | 191 kts | 77° |
| 2026-04-21 03:22 | -22.78601 | -43.18506 | 2010 ft | 216 kts | 77° |
| 2026-04-21 03:22 | -22.78249 | -43.16830 | 2478 ft | 240 kts | 77° |
| 2026-04-21 03:22 | -22.77861 | -43.15004 | 3085 ft | 259 kts | 77° |
| 2026-04-21 03:23 | -22.77448 | -43.13078 | 3991 ft | 264 kts | 77° |
| 2026-04-21 03:23 | -22.77020 | -43.11115 | 4954 ft | 268 kts | 76° |
| 2026-04-21 03:23 | -22.76587 | -43.09155 | 5893 ft | 272 kts | 76° |
| 2026-04-21 03:23 | -22.76142 | -43.07142 | 6822 ft | 276 kts | 76° |
| 2026-04-21 03:24 | -22.75692 | -43.05100 | 7735 ft | 280 kts | 76° |
| 2026-04-21 03:24 | -22.75236 | -43.03036 | 8627 ft | 284 kts | 76° |
| 2026-04-21 03:24 | -22.74696 | -43.00962 | 9486 ft | 288 kts | 66° |
| 2026-04-21 03:24 | -22.73744 | -42.99037 | 10281 ft | 295 kts | 60° |
| 2026-04-21 03:25 | -22.72711 | -42.97050 | 10613 ft | 318 kts | 60° |
| 2026-04-21 03:25 | -22.71583 | -42.94894 | 10962 ft | 338 kts | 60° |
| 2026-04-21 03:25 | -22.70403 | -42.92644 | 11625 ft | 346 kts | 60° |
| 2026-04-21 03:25 | -22.69207 | -42.90358 | 12379 ft | 350 kts | 60° |
| 2026-04-21 03:26 | -22.67999 | -42.88045 | 13119 ft | 354 kts | 60° |
| 2026-04-21 03:26 | -22.66776 | -42.85702 | 13840 ft | 358 kts | 60° |
| 2026-04-21 03:26 | -22.65543 | -42.83340 | 14546 ft | 362 kts | 60° |
| 2026-04-21 03:26 | -22.64293 | -42.80955 | 15238 ft | 366 kts | 60° |
| 2026-04-21 03:27 | -22.63031 | -42.78548 | 15897 ft | 370 kts | 60° |
| 2026-04-21 03:27 | -22.61758 | -42.76118 | 16564 ft | 373 kts | 60° |
| 2026-04-21 03:27 | -22.60488 | -42.73692 | 17191 ft | 377 kts | 60° |
| 2026-04-21 03:27 | -22.59189 | -42.71208 | 17805 ft | 380 kts | 60° |
| 2026-04-21 03:28 | -22.57876 | -42.68701 | 18398 ft | 384 kts | 60° |
| 2026-04-21 03:28 | -22.56552 | -42.66174 | 18989 ft | 388 kts | 60° |
| 2026-04-21 03:28 | -22.55214 | -42.63621 | 19549 ft | 391 kts | 60° |
| 2026-04-21 03:28 | -22.53865 | -42.61046 | 20077 ft | 396 kts | 60° |
| 2026-04-21 03:29 | -22.52498 | -42.58444 | 20602 ft | 399 kts | 60° |
| 2026-04-21 03:29 | -22.51114 | -42.55815 | 21144 ft | 402 kts | 60° |
| 2026-04-21 03:29 | -22.49725 | -42.53181 | 21674 ft | 405 kts | 60° |
| 2026-04-21 03:29 | -22.48326 | -42.50527 | 22176 ft | 407 kts | 60° |
| 2026-04-21 03:30 | -22.46917 | -42.47852 | 22666 ft | 411 kts | 60° |
| 2026-04-21 03:30 | -22.45518 | -42.45191 | 23113 ft | 414 kts | 60° |
| 2026-04-21 03:30 | -22.44071 | -42.42438 | 23557 ft | 417 kts | 60° |
| 2026-04-21 03:30 | -22.42651 | -42.39738 | 23993 ft | 420 kts | 60° |
| 2026-04-21 03:31 | -22.41196 | -42.36981 | 24401 ft | 424 kts | 60° |
| 2026-04-21 03:31 | -22.39727 | -42.34201 | 24815 ft | 427 kts | 60° |
| 2026-04-21 03:31 | -22.38248 | -42.31398 | 25227 ft | 430 kts | 60° |
| 2026-04-21 03:31 | -22.36761 | -42.28578 | 25618 ft | 433 kts | 60° |
| 2026-04-21 03:32 | -22.35265 | -42.25745 | 26021 ft | 435 kts | 60° |
| 2026-04-21 03:32 | -22.33757 | -42.22898 | 26410 ft | 437 kts | 60° |
| 2026-04-21 03:32 | -22.32240 | -42.20035 | 26810 ft | 440 kts | 60° |
| 2026-04-21 03:32 | -22.30718 | -42.17159 | 27200 ft | 441 kts | 60° |
| 2026-04-21 03:33 | -22.29189 | -42.14270 | 27573 ft | 444 kts | 60° |
| 2026-04-21 03:33 | -22.27648 | -42.11361 | 27912 ft | 447 kts | 60° |
| 2026-04-21 03:33 | -22.26116 | -42.08475 | 28219 ft | 450 kts | 60° |
| 2026-04-21 03:33 | -22.24555 | -42.05541 | 28602 ft | 451 kts | 60° |
| 2026-04-21 03:34 | -22.22986 | -42.02595 | 28973 ft | 452 kts | 60° |
| 2026-04-21 03:34 | -22.21413 | -41.99637 | 29297 ft | 453 kts | 60° |
| 2026-04-21 03:34 | -22.19840 | -41.96671 | 29604 ft | 455 kts | 60° |
| 2026-04-21 03:34 | -22.18265 | -41.93699 | 29898 ft | 457 kts | 60° |
| 2026-04-21 03:35 | -22.16694 | -41.90740 | 30123 ft | 461 kts | 60° |
| 2026-04-21 03:35 | -22.15084 | -41.87743 | 30411 ft | 462 kts | 58° |
| 2026-04-21 03:35 | -22.13200 | -41.84932 | 30701 ft | 464 kts | 49° |
| 2026-04-21 03:35 | -22.10930 | -41.82455 | 30955 ft | 463 kts | 40° |
| 2026-04-21 03:36 | -22.06056 | -41.78098 | 31009 ft | 449 kts | 39° |
| 2026-04-21 03:36 | -22.01262 | -41.73819 | 31009 ft | 446 kts | 39° |
| 2026-04-21 03:37 | -21.96479 | -41.69552 | 31009 ft | 446 kts | 39° |
| 2026-04-21 03:37 | -21.91693 | -41.65284 | 31009 ft | 446 kts | 39° |
| 2026-04-21 03:38 | -21.86933 | -41.61044 | 31009 ft | 446 kts | 39° |
| 2026-04-21 03:38 | -21.82147 | -41.56793 | 31008 ft | 446 kts | 39° |
| 2026-04-21 03:39 | -21.77349 | -41.52533 | 31008 ft | 446 kts | 39° |
| 2026-04-21 03:39 | -21.72600 | -41.48314 | 31008 ft | 445 kts | 39° |
| 2026-04-21 03:40 | -21.67825 | -41.44070 | 31007 ft | 445 kts | 39° |
| 2026-04-21 03:40 | -21.63039 | -41.39835 | 31007 ft | 445 kts | 39° |
| 2026-04-21 03:41 | -21.58242 | -41.35588 | 31006 ft | 445 kts | 39° |
| 2026-04-21 03:41 | -21.53487 | -41.31374 | 31005 ft | 445 kts | 39° |
| 2026-04-21 03:42 | -21.48702 | -41.27143 | 31005 ft | 445 kts | 39° |
| 2026-04-21 03:42 | -21.44718 | -41.23627 | 31005 ft | 445 kts | 39° |
| 2026-04-21 03:43 | -21.39928 | -41.19398 | 31005 ft | 445 kts | 39° |
| 2026-04-21 03:43 | -21.35130 | -41.15164 | 31006 ft | 445 kts | 39° |
| 2026-04-21 03:44 | -21.32730 | -41.13049 | 30827 ft | 446 kts | 39° |
| 2026-04-21 03:44 | -21.30363 | -41.10965 | 30579 ft | 446 kts | 39° |
| 2026-04-21 03:44 | -21.27962 | -41.08850 | 30329 ft | 446 kts | 39° |
| 2026-04-21 03:44 | -21.25558 | -41.06734 | 30079 ft | 447 kts | 39° |
| 2026-04-21 03:45 | -21.23154 | -41.04618 | 29817 ft | 447 kts | 39° |
| 2026-04-21 03:45 | -21.20738 | -41.02493 | 29569 ft | 447 kts | 39° |
| 2026-04-21 03:45 | -21.18332 | -41.00381 | 29339 ft | 446 kts | 39° |
| 2026-04-21 03:45 | -21.15932 | -40.98274 | 29078 ft | 445 kts | 39° |
| 2026-04-21 03:46 | -21.13573 | -40.96202 | 28826 ft | 443 kts | 39° |
| 2026-04-21 03:46 | -21.11193 | -40.94113 | 28581 ft | 441 kts | 39° |
| 2026-04-21 03:46 | -21.08822 | -40.92032 | 28328 ft | 440 kts | 39° |
| 2026-04-21 03:46 | -21.06462 | -40.89964 | 28078 ft | 438 kts | 39° |
| 2026-04-21 03:47 | -21.04105 | -40.87898 | 27827 ft | 436 kts | 39° |
| 2026-04-21 03:47 | -21.01763 | -40.85845 | 27577 ft | 434 kts | 39° |
| 2026-04-21 03:47 | -20.99428 | -40.83799 | 27328 ft | 433 kts | 39° |
| 2026-04-21 03:47 | -20.97112 | -40.81771 | 26888 ft | 428 kts | 39° |
| 2026-04-21 03:48 | -20.94817 | -40.79760 | 26256 ft | 425 kts | 39° |
| 2026-04-21 03:48 | -20.92538 | -40.77765 | 25627 ft | 421 kts | 39° |
| 2026-04-21 03:48 | -20.90278 | -40.75788 | 25036 ft | 417 kts | 39° |
| 2026-04-21 03:48 | -20.88038 | -40.73833 | 24438 ft | 414 kts | 39° |
| 2026-04-21 03:49 | -20.85820 | -40.71898 | 23867 ft | 409 kts | 39° |
| 2026-04-21 03:49 | -20.83628 | -40.69983 | 23312 ft | 405 kts | 39° |
| 2026-04-21 03:49 | -20.81420 | -40.68149 | 22783 ft | 400 kts | 33° |
| 2026-04-21 03:49 | -20.79008 | -40.66702 | 22277 ft | 395 kts | 24° |
| 2026-04-21 03:50 | -20.76516 | -40.65594 | 21799 ft | 390 kts | 22° |
| 2026-04-21 03:50 | -20.74016 | -40.64502 | 21321 ft | 386 kts | 22° |
| 2026-04-21 03:50 | -20.71543 | -40.63420 | 20862 ft | 381 kts | 22° |
| 2026-04-21 03:50 | -20.69115 | -40.62355 | 20375 ft | 369 kts | 22° |
| 2026-04-21 03:51 | -20.66761 | -40.61317 | 19932 ft | 363 kts | 22° |
| 2026-04-21 03:51 | -20.64430 | -40.60287 | 19468 ft | 361 kts | 22° |
| 2026-04-21 03:51 | -20.62113 | -40.59264 | 18994 ft | 360 kts | 22° |
| 2026-04-21 03:51 | -20.59804 | -40.58247 | 18523 ft | 358 kts | 22° |
| 2026-04-21 03:52 | -20.57533 | -40.57248 | 18043 ft | 357 kts | 22° |
| 2026-04-21 03:52 | -20.55239 | -40.56239 | 17560 ft | 355 kts | 22° |
| 2026-04-21 03:52 | -20.52949 | -40.55233 | 17067 ft | 355 kts | 22° |
| 2026-04-21 03:52 | -20.50666 | -40.54231 | 16576 ft | 353 kts | 22° |
| 2026-04-21 03:53 | -20.48392 | -40.53232 | 16100 ft | 352 kts | 22° |
| 2026-04-21 03:53 | -20.46155 | -40.52252 | 15611 ft | 351 kts | 22° |
| 2026-04-21 03:53 | -20.43894 | -40.51262 | 15120 ft | 350 kts | 22° |
| 2026-04-21 03:53 | -20.41642 | -40.50274 | 14640 ft | 349 kts | 22° |
| 2026-04-21 03:54 | -20.39403 | -40.49292 | 14155 ft | 347 kts | 22° |
| 2026-04-21 03:54 | -20.37168 | -40.48313 | 13672 ft | 346 kts | 22° |
| 2026-04-21 03:54 | -20.34919 | -40.47418 | 13175 ft | 344 kts | 15° |
| 2026-04-21 03:54 | -20.32597 | -40.46821 | 12683 ft | 342 kts | 13° |
| 2026-04-21 03:55 | -20.30281 | -40.46245 | 12181 ft | 341 kts | 13° |
| 2026-04-21 03:55 | -20.27974 | -40.45671 | 11677 ft | 340 kts | 13° |
| 2026-04-21 03:55 | -20.25679 | -40.45101 | 11169 ft | 338 kts | 13° |
| 2026-04-21 03:55 | -20.23390 | -40.44533 | 10654 ft | 335 kts | 13° |
| 2026-04-21 03:56 | -20.21210 | -40.43991 | 10352 ft | 314 kts | 13° |
| 2026-04-21 03:56 | -20.19160 | -40.43478 | 10113 ft | 294 kts | 13° |
| 2026-04-21 03:56 | -20.17184 | -40.42984 | 9694 ft | 290 kts | 13° |
| 2026-04-21 03:56 | -20.15233 | -40.42495 | 9372 ft | 287 kts | 13° |
| 2026-04-21 03:57 | -20.13300 | -40.42011 | 9021 ft | 285 kts | 13° |
| 2026-04-21 03:57 | -20.11440 | -40.41343 | 8518 ft | 280 kts | 28° |
| 2026-04-21 03:57 | -20.09892 | -40.40112 | 7862 ft | 278 kts | 47° |
| 2026-04-21 03:57 | -20.08810 | -40.38423 | 7207 ft | 276 kts | 66° |
| 2026-04-21 03:58 | -20.08185 | -40.36499 | 6521 ft | 274 kts | 72° |
| 2026-04-21 03:58 | -20.07616 | -40.34594 | 5870 ft | 272 kts | 72° |
| 2026-04-21 03:58 | -20.07042 | -40.32686 | 5202 ft | 270 kts | 72° |
| 2026-04-21 03:58 | -20.06470 | -40.30795 | 4578 ft | 267 kts | 72° |
| 2026-04-21 03:59 | -20.05899 | -40.28911 | 4149 ft | 268 kts | 72° |
| 2026-04-21 03:59 | -20.05338 | -40.27058 | 3957 ft | 252 kts | 72° |
| 2026-04-21 03:59 | -20.04823 | -40.25348 | 3710 ft | 236 kts | 72° |
| 2026-04-21 04:00 | -20.04235 | -40.21982 | 3339 ft | 233 kts | 96° |
| 2026-04-21 04:00 | -20.04645 | -40.20324 | 3184 ft | 231 kts | 114° |
| 2026-04-21 04:00 | -20.05487 | -40.18916 | 3050 ft | 221 kts | 132° |
| 2026-04-21 04:00 | -20.06597 | -40.17902 | 2921 ft | 202 kts | 149° |
| 2026-04-21 04:01 | -20.07813 | -40.17302 | 2763 ft | 188 kts | 164° |
| 2026-04-21 04:01 | -20.09077 | -40.17068 | 2629 ft | 178 kts | 179° |
| 2026-04-21 04:01 | -20.10246 | -40.17158 | 2499 ft | 163 kts | 191° |
| 2026-04-21 04:01 | -20.11326 | -40.17508 | 2425 ft | 164 kts | 204° |
| 2026-04-21 04:02 | -20.12322 | -40.18107 | 2407 ft | 165 kts | 216° |
| 2026-04-21 04:02 | -20.13168 | -40.18923 | 2166 ft | 164 kts | 229° |
| 2026-04-21 04:02 | -20.13814 | -40.19914 | 1930 ft | 163 kts | 242° |
| 2026-04-21 04:02 | -20.14360 | -40.20966 | 1680 ft | 162 kts | 241° |
| 2026-04-21 04:03 | -20.14910 | -40.22010 | 1536 ft | 161 kts | 241° |
| 2026-04-21 04:03 | -20.15458 | -40.23046 | 1533 ft | 154 kts | 241° |
| 2026-04-21 04:03 | -20.15961 | -40.23996 | 1501 ft | 143 kts | 241° |
| 2026-04-21 04:03 | -20.16441 | -40.24904 | 1386 ft | 139 kts | 241° |
| 2026-04-21 04:04 | -20.16910 | -40.25795 | 1169 ft | 137 kts | 241° |
| 2026-04-21 04:04 | -20.17383 | -40.26674 | 927 ft | 136 kts | 237° |
| 2026-04-21 04:04 | -20.17986 | -40.27435 | 727 ft | 136 kts | 224° |
| 2026-04-21 04:04 | -20.18739 | -40.28034 | 646 ft | 135 kts | 211° |
| 2026-04-21 04:05 | -20.19601 | -40.28445 | 647 ft | 136 kts | 198° |
| 2026-04-21 04:05 | -20.20529 | -40.28642 | 647 ft | 137 kts | 185° |
| 2026-04-21 04:05 | -20.21481 | -40.28610 | 642 ft | 138 kts | 172° |
| 2026-04-21 04:05 | -20.22432 | -40.28466 | 450 ft | 137 kts | 173° |
| 2026-04-21 04:06 | -20.23366 | -40.28326 | 271 ft | 137 kts | 173° |
| 2026-04-21 04:06 | -20.24302 | -40.28176 | 122 ft | 136 kts | 173° |
| 2026-04-21 04:06 | -20.25231 | -40.28050 | 26 ft | 128 kts | 172° |
| 2026-04-21 04:06 | -20.25908 | -40.27950 | 24 ft | 57 kts | 172° |
| 2026-04-21 04:07 | -20.26177 | -40.27909 | 19 ft | 37 kts | 172° |
| 2026-04-21 04:07 | -20.26445 | -40.27874 | 19 ft | 34 kts | 180° |
| 2026-04-21 04:07 | -20.26613 | -40.27908 | 18 ft | 17 kts | 194° |
| 2026-04-21 04:07 | -20.26711 | -40.27970 | 18 ft | 15 kts | 249° |
| 2026-04-21 04:08 | -20.26654 | -40.28023 | 21 ft | 12 kts | 351° |
| 2026-04-21 04:08 | -20.26576 | -40.28034 | 20 ft | 10 kts | 336° |
| 2026-04-21 04:08 | -20.26525 | -40.28074 | 18 ft | 7 kts | 319° |
| 2026-04-21 04:08 | -20.26495 | -40.28111 | 18 ft | 6 kts | 297° |
| 2026-04-21 04:09 | -20.26493 | -40.28149 | 18 ft | 5 kts | 265° |
| 2026-04-21 04:09 | -20.26495 | -40.28165 | 18 ft | 2 kts | 262° |
| 2026-04-21 04:09 | -20.26497 | -40.28177 | 20 ft | 0 kts | 261° |